Jacksonville, Florida
Current Conditions -  °F | °C
As of 7:56 PM on Monday 20 Oct 2014 (Local Time) from KJAX Reporting Station
Broken Clouds Broken Clouds  
Wind Chill: 71°   Ceiling: 15000
Heat Index: 71°   Visibility: 10mi
Dew Point: 67°   Wind: 3mph
Humidity: 87%   Direction: 140°SE
Pressure: 29.97"   Gusts: NA
Location:  30.32°N, 81.66°W
Report Text: KJAX 202356Z 14003KT 10SM BKN150 BKN250 22/19 A2997 RMK AO2 SLP149 T02170194 10278 20217 55001
Loading
Personal Weather Stations






























Interactive Weather Map
Tropical Storm Tracking
New forecast layout! Learn more

10-Day Weather Forecast

Advertisements
Track Severe Weather on mobile